sensor_id;sensor_type;location;lat;lon;timestamp;P1;durP1;ratioP1;P2;durP2;ratioP2
20065;SDS011;10193;48.884;9.182;2022-10-30T00:00:56;6.32;;;5.35;;
20065;SDS011;10193;48.884;9.182;2022-10-30T00:03:23;8.05;;;5.07;;
20065;SDS011;10193;48.884;9.182;2022-10-30T00:05:50;6.57;;;4.53;;
20065;SDS011;10193;48.884;9.182;2022-10-30T00:08:17;4.85;;;4.35;;
20065;SDS011;10193;48.884;9.182;2022-10-30T00:10:45;6.10;;;4.85;;
20065;SDS011;10193;48.884;9.182;2022-10-30T00:13:14;6.95;;;4.75;;
20065;SDS011;10193;48.884;9.182;2022-10-30T00:15:46;9.60;;;5.00;;
20065;SDS011;10193;48.884;9.182;2022-10-30T00:18:14;6.25;;;4.65;;
20065;SDS011;10193;48.884;9.182;2022-10-30T00:20:41;7.35;;;4.78;;
20065;SDS011;10193;48.884;9.182;2022-10-30T00:23:08;5.10;;;4.55;;
20065;SDS011;10193;48.884;9.182;2022-10-30T00:25:35;6.32;;;4.60;;
20065;SDS011;10193;48.884;9.182;2022-10-30T00:28:02;7.82;;;5.05;;
20065;SDS011;10193;48.884;9.182;2022-10-30T00:30:29;8.30;;;4.95;;
20065;SDS011;10193;48.884;9.182;2022-10-30T00:32:57;5.63;;;4.38;;
20065;SDS011;10193;48.884;9.182;2022-10-30T00:35:23;9.55;;;4.78;;
20065;SDS011;10193;48.884;9.182;2022-10-30T00:37:50;6.28;;;4.47;;
20065;SDS011;10193;48.884;9.182;2022-10-30T00:40:17;7.45;;;4.90;;
20065;SDS011;10193;48.884;9.182;2022-10-30T00:42:43;7.35;;;4.43;;
20065;SDS011;10193;48.884;9.182;2022-10-30T00:45:11;5.45;;;4.28;;
20065;SDS011;10193;48.884;9.182;2022-10-30T00:47:39;5.65;;;4.60;;
20065;SDS011;10193;48.884;9.182;2022-10-30T00:50:10;7.20;;;5.07;;
20065;SDS011;10193;48.884;9.182;2022-10-30T00:52:41;7.13;;;4.50;;
20065;SDS011;10193;48.884;9.182;2022-10-30T00:55:14;6.10;;;4.30;;
20065;SDS011;10193;48.884;9.182;2022-10-30T00:57:43;6.43;;;4.32;;
20065;SDS011;10193;48.884;9.182;2022-10-30T01:00:11;7.05;;;4.60;;
20065;SDS011;10193;48.884;9.182;2022-10-30T01:02:39;6.38;;;4.80;;
20065;SDS011;10193;48.884;9.182;2022-10-30T01:05:10;7.00;;;4.65;;
20065;SDS011;10193;48.884;9.182;2022-10-30T01:07:40;7.18;;;4.68;;
20065;SDS011;10193;48.884;9.182;2022-10-30T01:10:07;6.95;;;4.57;;
20065;SDS011;10193;48.884;9.182;2022-10-30T01:12:35;5.82;;;4.30;;
20065;SDS011;10193;48.884;9.182;2022-10-30T01:15:02;7.03;;;4.20;;
20065;SDS011;10193;48.884;9.182;2022-10-30T01:17:36;6.07;;;4.55;;
20065;SDS011;10193;48.884;9.182;2022-10-30T01:20:26;7.50;;;4.85;;
20065;SDS011;10193;48.884;9.182;2022-10-30T01:23:08;6.55;;;4.55;;
20065;SDS011;10193;48.884;9.182;2022-10-30T01:25:48;7.03;;;4.20;;
20065;SDS011;10193;48.884;9.182;2022-10-30T01:28:27;7.38;;;4.38;;
20065;SDS011;10193;48.884;9.182;2022-10-30T01:31:09;6.75;;;4.25;;
20065;SDS011;10193;48.884;9.182;2022-10-30T01:33:49;5.40;;;4.32;;
20065;SDS011;10193;48.884;9.182;2022-10-30T01:36:24;7.47;;;4.80;;
20065;SDS011;10193;48.884;9.182;2022-10-30T01:38:57;7.38;;;4.50;;
20065;SDS011;10193;48.884;9.182;2022-10-30T01:41:27;5.85;;;4.40;;
20065;SDS011;10193;48.884;9.182;2022-10-30T01:43:55;5.57;;;4.30;;
20065;SDS011;10193;48.884;9.182;2022-10-30T01:46:32;6.68;;;3.92;;
20065;SDS011;10193;48.884;9.182;2022-10-30T01:49:10;5.80;;;4.10;;
20065;SDS011;10193;48.884;9.182;2022-10-30T01:51:53;6.43;;;4.18;;
20065;SDS011;10193;48.884;9.182;2022-10-30T01:54:29;8.13;;;4.47;;
20065;SDS011;10193;48.884;9.182;2022-10-30T01:57:01;7.63;;;4.30;;
20065;SDS011;10193;48.884;9.182;2022-10-30T01:59:33;6.47;;;4.35;;
20065;SDS011;10193;48.884;9.182;2022-10-30T02:02:03;7.22;;;4.32;;
20065;SDS011;10193;48.884;9.182;2022-10-30T02:04:30;5.70;;;4.10;;
20065;SDS011;10193;48.884;9.182;2022-10-30T02:06:59;6.22;;;4.22;;
20065;SDS011;10193;48.884;9.182;2022-10-30T02:09:25;7.28;;;4.68;;
20065;SDS011;10193;48.884;9.182;2022-10-30T02:11:52;6.05;;;4.15;;
20065;SDS011;10193;48.884;9.182;2022-10-30T02:14:20;5.97;;;4.63;;
20065;SDS011;10193;48.884;9.182;2022-10-30T02:16:51;7.30;;;4.45;;
20065;SDS011;10193;48.884;9.182;2022-10-30T02:19:22;8.02;;;4.40;;
20065;SDS011;10193;48.884;9.182;2022-10-30T02:21:50;8.02;;;4.38;;
20065;SDS011;10193;48.884;9.182;2022-10-30T02:24:17;6.57;;;4.25;;
20065;SDS011;10193;48.884;9.182;2022-10-30T02:26:43;6.35;;;4.32;;
20065;SDS011;10193;48.884;9.182;2022-10-30T02:29:10;6.22;;;4.30;;
20065;SDS011;10193;48.884;9.182;2022-10-30T02:31:37;5.50;;;3.92;;
20065;SDS011;10193;48.884;9.182;2022-10-30T02:34:04;6.05;;;4.35;;
20065;SDS011;10193;48.884;9.182;2022-10-30T02:36:30;6.32;;;4.20;;
20065;SDS011;10193;48.884;9.182;2022-10-30T02:38:58;7.18;;;4.47;;
20065;SDS011;10193;48.884;9.182;2022-10-30T02:41:25;7.53;;;4.47;;
20065;SDS011;10193;48.884;9.182;2022-10-30T02:43:52;6.32;;;4.22;;
20065;SDS011;10193;48.884;9.182;2022-10-30T02:46:18;6.65;;;4.00;;
20065;SDS011;10193;48.884;9.182;2022-10-30T02:48:45;7.82;;;4.10;;
20065;SDS011;10193;48.884;9.182;2022-10-30T02:51:12;6.22;;;4.03;;
20065;SDS011;10193;48.884;9.182;2022-10-30T02:53:38;6.78;;;3.92;;
20065;SDS011;10193;48.884;9.182;2022-10-30T02:56:07;5.63;;;3.95;;
20065;SDS011;10193;48.884;9.182;2022-10-30T02:58:35;5.95;;;4.22;;
20065;SDS011;10193;48.884;9.182;2022-10-30T03:01:06;6.90;;;4.60;;
20065;SDS011;10193;48.884;9.182;2022-10-30T03:03:33;7.15;;;4.30;;
20065;SDS011;10193;48.884;9.182;2022-10-30T03:06:00;5.60;;;4.00;;
20065;SDS011;10193;48.884;9.182;2022-10-30T03:08:27;6.20;;;3.97;;
20065;SDS011;10193;48.884;9.182;2022-10-30T03:11:00;6.50;;;4.03;;
20065;SDS011;10193;48.884;9.182;2022-10-30T03:13:29;7.13;;;3.83;;
20065;SDS011;10193;48.884;9.182;2022-10-30T03:16:00;6.38;;;3.95;;
20065;SDS011;10193;48.884;9.182;2022-10-30T03:18:27;6.60;;;4.20;;
20065;SDS011;10193;48.884;9.182;2022-10-30T03:20:55;4.15;;;3.72;;
20065;SDS011;10193;48.884;9.182;2022-10-30T03:23:22;5.93;;;4.05;;
20065;SDS011;10193;48.884;9.182;2022-10-30T03:25:51;5.80;;;3.90;;
20065;SDS011;10193;48.884;9.182;2022-10-30T03:28:19;8.43;;;4.28;;
20065;SDS011;10193;48.884;9.182;2022-10-30T03:30:47;5.95;;;3.90;;
20065;SDS011;10193;48.884;9.182;2022-10-30T03:33:14;5.38;;;4.03;;
20065;SDS011;10193;48.884;9.182;2022-10-30T03:35:42;5.45;;;3.90;;
20065;SDS011;10193;48.884;9.182;2022-10-30T03:38:09;5.95;;;3.80;;
20065;SDS011;10193;48.884;9.182;2022-10-30T03:40:36;7.57;;;4.28;;
20065;SDS011;10193;48.884;9.182;2022-10-30T03:43:03;5.63;;;3.88;;
20065;SDS011;10193;48.884;9.182;2022-10-30T03:45:30;4.65;;;4.03;;
20065;SDS011;10193;48.884;9.182;2022-10-30T03:47:59;8.05;;;4.05;;
20065;SDS011;10193;48.884;9.182;2022-10-30T03:50:26;5.25;;;3.80;;
20065;SDS011;10193;48.884;9.182;2022-10-30T03:52:53;8.45;;;4.07;;
20065;SDS011;10193;48.884;9.182;2022-10-30T03:55:20;5.82;;;3.63;;
20065;SDS011;10193;48.884;9.182;2022-10-30T03:57:47;6.93;;;4.20;;
20065;SDS011;10193;48.884;9.182;2022-10-30T04:00:15;6.78;;;3.67;;
20065;SDS011;10193;48.884;9.182;2022-10-30T04:02:43;5.63;;;4.15;;
20065;SDS011;10193;48.884;9.182;2022-10-30T04:05:12;6.63;;;3.75;;
20065;SDS011;10193;48.884;9.182;2022-10-30T04:07:39;7.72;;;4.38;;
20065;SDS011;10193;48.884;9.182;2022-10-30T04:10:05;5.43;;;3.63;;
20065;SDS011;10193;48.884;9.182;2022-10-30T04:12:32;8.90;;;3.95;;
20065;SDS011;10193;48.884;9.182;2022-10-30T04:14:59;5.50;;;3.67;;
20065;SDS011;10193;48.884;9.182;2022-10-30T04:17:26;8.25;;;3.97;;
20065;SDS011;10193;48.884;9.182;2022-10-30T04:19:52;6.72;;;3.85;;
20065;SDS011;10193;48.884;9.182;2022-10-30T04:22:20;7.38;;;4.03;;
20065;SDS011;10193;48.884;9.182;2022-10-30T04:24:47;5.78;;;3.90;;
20065;SDS011;10193;48.884;9.182;2022-10-30T04:27:14;6.68;;;3.85;;
20065;SDS011;10193;48.884;9.182;2022-10-30T04:29:41;5.95;;;3.58;;
20065;SDS011;10193;48.884;9.182;2022-10-30T04:32:07;4.95;;;3.80;;
20065;SDS011;10193;48.884;9.182;2022-10-30T04:34:34;6.55;;;4.00;;
20065;SDS011;10193;48.884;9.182;2022-10-30T04:37:03;5.97;;;4.18;;
20065;SDS011;10193;48.884;9.182;2022-10-30T04:39:31;8.23;;;3.83;;
20065;SDS011;10193;48.884;9.182;2022-10-30T04:41:58;5.97;;;3.95;;
20065;SDS011;10193;48.884;9.182;2022-10-30T04:44:24;5.97;;;3.90;;
20065;SDS011;10193;48.884;9.182;2022-10-30T04:46:51;6.65;;;3.85;;
20065;SDS011;10193;48.884;9.182;2022-10-30T04:49:18;5.47;;;3.80;;
20065;SDS011;10193;48.884;9.182;2022-10-30T04:51:44;5.53;;;3.67;;
20065;SDS011;10193;48.884;9.182;2022-10-30T04:54:11;6.15;;;4.20;;
20065;SDS011;10193;48.884;9.182;2022-10-30T04:56:39;6.85;;;3.70;;
20065;SDS011;10193;48.884;9.182;2022-10-30T04:59:05;5.47;;;3.55;;
20065;SDS011;10193;48.884;9.182;2022-10-30T05:01:32;4.55;;;3.53;;
20065;SDS011;10193;48.884;9.182;2022-10-30T05:03:59;7.30;;;3.75;;
20065;SDS011;10193;48.884;9.182;2022-10-30T05:06:27;7.20;;;3.55;;
20065;SDS011;10193;48.884;9.182;2022-10-30T05:08:55;4.57;;;3.55;;
20065;SDS011;10193;48.884;9.182;2022-10-30T05:11:22;6.05;;;3.80;;
20065;SDS011;10193;48.884;9.182;2022-10-30T05:13:50;3.83;;;3.15;;
20065;SDS011;10193;48.884;9.182;2022-10-30T05:16:17;5.15;;;3.50;;
20065;SDS011;10193;48.884;9.182;2022-10-30T05:18:43;4.75;;;3.67;;
20065;SDS011;10193;48.884;9.182;2022-10-30T05:21:10;8.05;;;3.72;;
20065;SDS011;10193;48.884;9.182;2022-10-30T05:23:37;7.80;;;3.90;;
20065;SDS011;10193;48.884;9.182;2022-10-30T05:26:03;6.60;;;3.80;;
20065;SDS011;10193;48.884;9.182;2022-10-30T05:28:30;7.47;;;3.72;;
20065;SDS011;10193;48.884;9.182;2022-10-30T05:30:58;4.88;;;3.70;;
20065;SDS011;10193;48.884;9.182;2022-10-30T05:33:25;3.97;;;3.22;;
20065;SDS011;10193;48.884;9.182;2022-10-30T05:35:51;7.30;;;4.15;;
20065;SDS011;10193;48.884;9.182;2022-10-30T05:38:18;4.90;;;3.70;;
20065;SDS011;10193;48.884;9.182;2022-10-30T05:40:45;4.75;;;3.60;;
20065;SDS011;10193;48.884;9.182;2022-10-30T05:43:12;5.25;;;3.60;;
20065;SDS011;10193;48.884;9.182;2022-10-30T05:45:38;4.53;;;3.47;;
20065;SDS011;10193;48.884;9.182;2022-10-30T05:48:06;6.28;;;3.72;;
20065;SDS011;10193;48.884;9.182;2022-10-30T05:50:33;4.07;;;3.25;;
20065;SDS011;10193;48.884;9.182;2022-10-30T05:53:00;6.30;;;3.38;;
20065;SDS011;10193;48.884;9.182;2022-10-30T05:55:28;4.28;;;3.22;;
20065;SDS011;10193;48.884;9.182;2022-10-30T05:57:55;3.92;;;3.15;;
20065;SDS011;10193;48.884;9.182;2022-10-30T06:00:22;5.50;;;3.05;;
20065;SDS011;10193;48.884;9.182;2022-10-30T06:02:49;4.63;;;3.45;;
20065;SDS011;10193;48.884;9.182;2022-10-30T06:05:17;5.97;;;3.55;;
20065;SDS011;10193;48.884;9.182;2022-10-30T06:07:44;3.88;;;3.30;;
20065;SDS011;10193;48.884;9.182;2022-10-30T06:10:10;5.25;;;3.42;;
20065;SDS011;10193;48.884;9.182;2022-10-30T06:12:37;5.50;;;3.15;;
20065;SDS011;10193;48.884;9.182;2022-10-30T06:15:04;6.70;;;3.63;;
20065;SDS011;10193;48.884;9.182;2022-10-30T06:17:31;4.55;;;3.20;;
20065;SDS011;10193;48.884;9.182;2022-10-30T06:19:58;4.32;;;3.22;;
20065;SDS011;10193;48.884;9.182;2022-10-30T06:22:26;6.53;;;3.47;;
20065;SDS011;10193;48.884;9.182;2022-10-30T06:24:52;4.70;;;3.60;;
20065;SDS011;10193;48.884;9.182;2022-10-30T06:27:19;6.22;;;3.65;;
20065;SDS011;10193;48.884;9.182;2022-10-30T06:29:45;4.82;;;3.42;;
20065;SDS011;10193;48.884;9.182;2022-10-30T06:32:13;6.00;;;3.35;;
20065;SDS011;10193;48.884;9.182;2022-10-30T06:34:39;6.47;;;3.45;;
20065;SDS011;10193;48.884;9.182;2022-10-30T06:37:06;6.90;;;3.50;;
20065;SDS011;10193;48.884;9.182;2022-10-30T06:39:34;5.03;;;3.20;;
20065;SDS011;10193;48.884;9.182;2022-10-30T06:42:01;6.38;;;3.28;;
20065;SDS011;10193;48.884;9.182;2022-10-30T06:44:28;8.85;;;3.70;;
20065;SDS011;10193;48.884;9.182;2022-10-30T06:46:54;5.68;;;3.65;;
20065;SDS011;10193;48.884;9.182;2022-10-30T06:49:21;6.68;;;3.70;;
20065;SDS011;10193;48.884;9.182;2022-10-30T06:51:48;4.93;;;3.40;;
20065;SDS011;10193;48.884;9.182;2022-10-30T06:54:16;7.28;;;3.95;;
20065;SDS011;10193;48.884;9.182;2022-10-30T06:56:46;6.55;;;3.47;;
20065;SDS011;10193;48.884;9.182;2022-10-30T06:59:15;7.07;;;3.50;;
20065;SDS011;10193;48.884;9.182;2022-10-30T07:01:41;6.47;;;3.95;;
20065;SDS011;10193;48.884;9.182;2022-10-30T07:04:08;5.20;;;3.60;;
20065;SDS011;10193;48.884;9.182;2022-10-30T07:06:35;7.18;;;3.58;;
20065;SDS011;10193;48.884;9.182;2022-10-30T07:09:01;5.32;;;3.72;;
20065;SDS011;10193;48.884;9.182;2022-10-30T07:11:28;7.85;;;3.42;;
20065;SDS011;10193;48.884;9.182;2022-10-30T07:13:56;7.80;;;3.65;;
20065;SDS011;10193;48.884;9.182;2022-10-30T07:16:22;5.53;;;3.35;;
20065;SDS011;10193;48.884;9.182;2022-10-30T07:18:49;5.85;;;3.60;;
20065;SDS011;10193;48.884;9.182;2022-10-30T07:21:16;4.13;;;3.15;;
20065;SDS011;10193;48.884;9.182;2022-10-30T07:23:43;4.88;;;3.25;;
20065;SDS011;10193;48.884;9.182;2022-10-30T07:26:09;6.15;;;3.58;;
20065;SDS011;10193;48.884;9.182;2022-10-30T07:28:36;6.07;;;3.55;;
20065;SDS011;10193;48.884;9.182;2022-10-30T07:31:04;6.10;;;3.60;;
20065;SDS011;10193;48.884;9.182;2022-10-30T07:33:31;7.38;;;3.33;;
20065;SDS011;10193;48.884;9.182;2022-10-30T07:35:59;5.45;;;2.92;;
20065;SDS011;10193;48.884;9.182;2022-10-30T07:38:26;5.40;;;3.33;;
20065;SDS011;10193;48.884;9.182;2022-10-30T07:40:53;4.57;;;3.47;;
20065;SDS011;10193;48.884;9.182;2022-10-30T07:43:20;4.65;;;3.47;;
20065;SDS011;10193;48.884;9.182;2022-10-30T07:45:46;6.70;;;3.30;;
20065;SDS011;10193;48.884;9.182;2022-10-30T07:48:14;5.28;;;3.65;;
20065;SDS011;10193;48.884;9.182;2022-10-30T07:50:41;3.72;;;3.10;;
20065;SDS011;10193;48.884;9.182;2022-10-30T07:53:08;5.97;;;3.50;;
20065;SDS011;10193;48.884;9.182;2022-10-30T07:55:34;7.00;;;3.47;;
20065;SDS011;10193;48.884;9.182;2022-10-30T07:58:01;5.38;;;3.50;;
20065;SDS011;10193;48.884;9.182;2022-10-30T08:00:27;4.55;;;3.47;;
20065;SDS011;10193;48.884;9.182;2022-10-30T08:02:54;5.30;;;2.92;;
20065;SDS011;10193;48.884;9.182;2022-10-30T08:05:23;5.55;;;3.05;;
20065;SDS011;10193;48.884;9.182;2022-10-30T08:07:50;5.82;;;3.13;;
20065;SDS011;10193;48.884;9.182;2022-10-30T08:10:17;5.47;;;3.25;;
20065;SDS011;10193;48.884;9.182;2022-10-30T08:12:43;6.80;;;3.40;;
20065;SDS011;10193;48.884;9.182;2022-10-30T08:15:11;6.13;;;3.28;;
20065;SDS011;10193;48.884;9.182;2022-10-30T08:17:41;5.63;;;3.15;;
20065;SDS011;10193;48.884;9.182;2022-10-30T08:20:10;4.65;;;2.80;;
20065;SDS011;10193;48.884;9.182;2022-10-30T08:22:46;6.80;;;2.88;;
20065;SDS011;10193;48.884;9.182;2022-10-30T08:25:14;8.15;;;3.17;;
20065;SDS011;10193;48.884;9.182;2022-10-30T08:27:49;5.72;;;3.35;;
20065;SDS011;10193;48.884;9.182;2022-10-30T08:30:19;6.15;;;3.10;;
20065;SDS011;10193;48.884;9.182;2022-10-30T08:32:46;4.10;;;3.03;;
20065;SDS011;10193;48.884;9.182;2022-10-30T08:35:13;6.57;;;3.40;;
20065;SDS011;10193;48.884;9.182;2022-10-30T08:37:40;5.10;;;3.28;;
20065;SDS011;10193;48.884;9.182;2022-10-30T08:40:09;3.97;;;3.28;;
20065;SDS011;10193;48.884;9.182;2022-10-30T08:42:36;6.53;;;2.92;;
20065;SDS011;10193;48.884;9.182;2022-10-30T08:45:03;5.10;;;3.28;;
20065;SDS011;10193;48.884;9.182;2022-10-30T08:47:30;5.43;;;3.00;;
20065;SDS011;10193;48.884;9.182;2022-10-30T08:49:57;4.28;;;3.10;;
20065;SDS011;10193;48.884;9.182;2022-10-30T08:52:23;3.70;;;2.92;;
20065;SDS011;10193;48.884;9.182;2022-10-30T08:54:50;5.22;;;3.17;;
20065;SDS011;10193;48.884;9.182;2022-10-30T08:57:19;3.92;;;3.10;;
20065;SDS011;10193;48.884;9.182;2022-10-30T08:59:46;4.60;;;2.88;;
20065;SDS011;10193;48.884;9.182;2022-10-30T09:02:12;5.35;;;3.05;;
20065;SDS011;10193;48.884;9.182;2022-10-30T09:04:39;6.18;;;3.10;;
20065;SDS011;10193;48.884;9.182;2022-10-30T09:07:06;4.93;;;2.70;;
20065;SDS011;10193;48.884;9.182;2022-10-30T09:09:32;6.63;;;2.90;;
20065;SDS011;10193;48.884;9.182;2022-10-30T09:11:59;3.15;;;2.75;;
20065;SDS011;10193;48.884;9.182;2022-10-30T09:14:27;7.20;;;2.97;;
20065;SDS011;10193;48.884;9.182;2022-10-30T09:16:54;5.88;;;2.65;;
20065;SDS011;10193;48.884;9.182;2022-10-30T09:19:20;6.85;;;2.88;;
20065;SDS011;10193;48.884;9.182;2022-10-30T09:21:48;4.40;;;2.72;;
20065;SDS011;10193;48.884;9.182;2022-10-30T09:24:15;4.40;;;2.80;;
20065;SDS011;10193;48.884;9.182;2022-10-30T09:26:41;3.40;;;2.78;;
20065;SDS011;10193;48.884;9.182;2022-10-30T09:29:08;3.92;;;2.78;;
20065;SDS011;10193;48.884;9.182;2022-10-30T09:31:36;5.25;;;2.47;;
20065;SDS011;10193;48.884;9.182;2022-10-30T09:34:03;3.95;;;2.38;;
20065;SDS011;10193;48.884;9.182;2022-10-30T09:36:29;3.58;;;2.60;;
20065;SDS011;10193;48.884;9.182;2022-10-30T09:38:57;4.68;;;2.70;;
20065;SDS011;10193;48.884;9.182;2022-10-30T09:41:27;3.70;;;2.45;;
20065;SDS011;10193;48.884;9.182;2022-10-30T09:44:11;5.00;;;2.60;;
20065;SDS011;10193;48.884;9.182;2022-10-30T09:46:49;5.63;;;2.70;;
20065;SDS011;10193;48.884;9.182;2022-10-30T09:49:27;5.05;;;2.80;;
20065;SDS011;10193;48.884;9.182;2022-10-30T09:52:13;3.78;;;2.58;;
20065;SDS011;10193;48.884;9.182;2022-10-30T09:54:54;4.47;;;2.50;;
20065;SDS011;10193;48.884;9.182;2022-10-30T09:57:32;4.97;;;2.50;;
20065;SDS011;10193;48.884;9.182;2022-10-30T10:00:06;4.20;;;2.63;;
20065;SDS011;10193;48.884;9.182;2022-10-30T10:02:37;3.95;;;2.50;;
20065;SDS011;10193;48.884;9.182;2022-10-30T10:05:18;4.63;;;2.63;;
20065;SDS011;10193;48.884;9.182;2022-10-30T10:07:49;4.20;;;2.40;;
20065;SDS011;10193;48.884;9.182;2022-10-30T10:10:24;5.22;;;2.38;;
20065;SDS011;10193;48.884;9.182;2022-10-30T10:13:00;5.30;;;2.33;;
20065;SDS011;10193;48.884;9.182;2022-10-30T10:15:32;3.63;;;2.60;;
20065;SDS011;10193;48.884;9.182;2022-10-30T10:18:05;4.18;;;2.53;;
20065;SDS011;10193;48.884;9.182;2022-10-30T10:20:49;3.63;;;2.58;;
20065;SDS011;10193;48.884;9.182;2022-10-30T10:23:18;3.38;;;2.55;;
20065;SDS011;10193;48.884;9.182;2022-10-30T10:25:52;2.30;;;1.98;;
20065;SDS011;10193;48.884;9.182;2022-10-30T10:28:26;3.17;;;2.00;;
20065;SDS011;10193;48.884;9.182;2022-10-30T10:31:06;3.50;;;2.08;;
20065;SDS011;10193;48.884;9.182;2022-10-30T10:33:49;3.63;;;2.05;;
20065;SDS011;10193;48.884;9.182;2022-10-30T10:36:27;5.18;;;2.22;;
20065;SDS011;10193;48.884;9.182;2022-10-30T10:39:03;3.83;;;2.08;;
20065;SDS011;10193;48.884;9.182;2022-10-30T10:41:45;3.67;;;2.35;;
20065;SDS011;10193;48.884;9.182;2022-10-30T10:44:32;3.20;;;2.40;;
20065;SDS011;10193;48.884;9.182;2022-10-30T10:47:17;4.80;;;2.40;;
20065;SDS011;10193;48.884;9.182;2022-10-30T10:50:12;4.10;;;2.05;;
20065;SDS011;10193;48.884;9.182;2022-10-30T10:52:46;2.35;;;1.98;;
20065;SDS011;10193;48.884;9.182;2022-10-30T10:55:17;2.90;;;2.05;;
20065;SDS011;10193;48.884;9.182;2022-10-30T10:57:45;4.45;;;2.33;;
20065;SDS011;10193;48.884;9.182;2022-10-30T11:00:13;3.55;;;2.03;;
20065;SDS011;10193;48.884;9.182;2022-10-30T11:02:42;4.25;;;2.00;;
20065;SDS011;10193;48.884;9.182;2022-10-30T11:05:20;3.22;;;2.13;;
20065;SDS011;10193;48.884;9.182;2022-10-30T11:07:51;3.42;;;2.38;;
20065;SDS011;10193;48.884;9.182;2022-10-30T11:10:22;3.72;;;2.45;;
20065;SDS011;10193;48.884;9.182;2022-10-30T11:12:50;2.80;;;1.98;;
20065;SDS011;10193;48.884;9.182;2022-10-30T11:15:18;5.25;;;2.20;;
20065;SDS011;10193;48.884;9.182;2022-10-30T11:17:54;5.78;;;2.25;;
20065;SDS011;10193;48.884;9.182;2022-10-30T11:20:28;3.00;;;2.03;;
20065;SDS011;10193;48.884;9.182;2022-10-30T11:23:01;4.07;;;2.28;;
20065;SDS011;10193;48.884;9.182;2022-10-30T11:25:32;2.80;;;2.30;;
20065;SDS011;10193;48.884;9.182;2022-10-30T11:28:01;4.32;;;2.30;;
20065;SDS011;10193;48.884;9.182;2022-10-30T11:30:30;2.47;;;1.85;;
20065;SDS011;10193;48.884;9.182;2022-10-30T11:32:57;3.50;;;2.30;;
20065;SDS011;10193;48.884;9.182;2022-10-30T11:35:24;3.97;;;2.40;;
20065;SDS011;10193;48.884;9.182;2022-10-30T11:40:39;3.38;;;2.05;;
20065;SDS011;10193;48.884;9.182;2022-10-30T11:43:13;2.35;;;1.95;;
20065;SDS011;10193;48.884;9.182;2022-10-30T11:45:45;6.18;;;2.42;;
20065;SDS011;10193;48.884;9.182;2022-10-30T11:48:15;4.20;;;2.50;;
20065;SDS011;10193;48.884;9.182;2022-10-30T11:50:47;4.55;;;2.30;;
20065;SDS011;10193;48.884;9.182;2022-10-30T11:53:18;4.47;;;2.33;;
20065;SDS011;10193;48.884;9.182;2022-10-30T11:55:47;2.58;;;2.28;;
20065;SDS011;10193;48.884;9.182;2022-10-30T11:58:19;4.85;;;2.83;;
20065;SDS011;10193;48.884;9.182;2022-10-30T12:00:56;4.00;;;2.80;;
20065;SDS011;10193;48.884;9.182;2022-10-30T12:03:26;3.95;;;2.80;;
20065;SDS011;10193;48.884;9.182;2022-10-30T12:06:06;5.22;;;3.03;;
20065;SDS011;10193;48.884;9.182;2022-10-30T12:08:35;4.60;;;2.45;;
20065;SDS011;10193;48.884;9.182;2022-10-30T12:11:02;2.70;;;2.40;;
20065;SDS011;10193;48.884;9.182;2022-10-30T12:13:32;6.50;;;2.88;;
20065;SDS011;10193;48.884;9.182;2022-10-30T12:16:04;3.53;;;2.50;;
20065;SDS011;10193;48.884;9.182;2022-10-30T12:18:41;2.95;;;2.35;;
20065;SDS011;10193;48.884;9.182;2022-10-30T12:21:18;4.55;;;2.38;;
20065;SDS011;10193;48.884;9.182;2022-10-30T12:23:50;3.17;;;2.53;;
20065;SDS011;10193;48.884;9.182;2022-10-30T12:26:20;3.13;;;2.50;;
20065;SDS011;10193;48.884;9.182;2022-10-30T12:28:50;3.50;;;2.60;;
20065;SDS011;10193;48.884;9.182;2022-10-30T12:31:22;3.38;;;2.28;;
20065;SDS011;10193;48.884;9.182;2022-10-30T12:33:56;3.10;;;2.40;;
20065;SDS011;10193;48.884;9.182;2022-10-30T12:36:42;2.85;;;2.20;;
20065;SDS011;10193;48.884;9.182;2022-10-30T12:39:14;4.30;;;2.22;;
20065;SDS011;10193;48.884;9.182;2022-10-30T12:41:49;4.80;;;2.40;;
20065;SDS011;10193;48.884;9.182;2022-10-30T12:44:25;6.88;;;2.10;;
20065;SDS011;10193;48.884;9.182;2022-10-30T12:46:54;3.63;;;2.25;;
20065;SDS011;10193;48.884;9.182;2022-10-30T12:49:27;3.15;;;2.13;;
20065;SDS011;10193;48.884;9.182;2022-10-30T12:52:00;2.25;;;1.90;;
20065;SDS011;10193;48.884;9.182;2022-10-30T12:54:34;2.95;;;1.83;;
20065;SDS011;10193;48.884;9.182;2022-10-30T12:57:09;3.58;;;2.22;;
20065;SDS011;10193;48.884;9.182;2022-10-30T12:59:42;3.92;;;2.30;;
20065;SDS011;10193;48.884;9.182;2022-10-30T13:02:31;4.97;;;2.30;;
20065;SDS011;10193;48.884;9.182;2022-10-30T13:05:12;4.20;;;2.35;;
20065;SDS011;10193;48.884;9.182;2022-10-30T13:07:46;3.83;;;2.38;;
20065;SDS011;10193;48.884;9.182;2022-10-30T13:10:26;2.40;;;2.15;;
20065;SDS011;10193;48.884;9.182;2022-10-30T13:12:57;3.83;;;2.55;;
20065;SDS011;10193;48.884;9.182;2022-10-30T13:15:28;4.72;;;2.60;;
20065;SDS011;10193;48.884;9.182;2022-10-30T13:17:58;3.78;;;2.33;;
20065;SDS011;10193;48.884;9.182;2022-10-30T13:20:31;4.13;;;2.72;;
20065;SDS011;10193;48.884;9.182;2022-10-30T13:22:59;3.50;;;2.60;;
20065;SDS011;10193;48.884;9.182;2022-10-30T13:25:33;3.40;;;2.47;;
20065;SDS011;10193;48.884;9.182;2022-10-30T13:28:06;3.75;;;2.38;;
20065;SDS011;10193;48.884;9.182;2022-10-30T13:30:43;3.05;;;2.30;;
20065;SDS011;10193;48.884;9.182;2022-10-30T13:33:22;2.95;;;2.40;;
20065;SDS011;10193;48.884;9.182;2022-10-30T13:35:54;3.50;;;2.55;;
20065;SDS011;10193;48.884;9.182;2022-10-30T13:38:33;3.88;;;3.08;;
20065;SDS011;10193;48.884;9.182;2022-10-30T13:41:08;4.05;;;3.58;;
20065;SDS011;10193;48.884;9.182;2022-10-30T13:43:42;5.25;;;4.25;;
20065;SDS011;10193;48.884;9.182;2022-10-30T13:46:24;5.90;;;3.92;;
20065;SDS011;10193;48.884;9.182;2022-10-30T13:49:00;4.30;;;3.40;;
20065;SDS011;10193;48.884;9.182;2022-10-30T13:51:39;5.50;;;3.90;;
20065;SDS011;10193;48.884;9.182;2022-10-30T13:54:16;4.50;;;3.22;;
20065;SDS011;10193;48.884;9.182;2022-10-30T13:56:47;6.00;;;3.17;;
20065;SDS011;10193;48.884;9.182;2022-10-30T13:59:19;3.30;;;3.03;;
20065;SDS011;10193;48.884;9.182;2022-10-30T14:01:54;4.13;;;3.25;;
20065;SDS011;10193;48.884;9.182;2022-10-30T14:04:27;3.72;;;3.13;;
20065;SDS011;10193;48.884;9.182;2022-10-30T14:07:00;4.18;;;3.30;;
20065;SDS011;10193;48.884;9.182;2022-10-30T14:09:44;4.00;;;3.00;;
20065;SDS011;10193;48.884;9.182;2022-10-30T14:15:18;2.97;;;2.67;;
20065;SDS011;10193;48.884;9.182;2022-10-30T14:20:48;3.42;;;2.30;;
20065;SDS011;10193;48.884;9.182;2022-10-30T14:23:18;2.60;;;2.40;;
20065;SDS011;10193;48.884;9.182;2022-10-30T14:28:39;5.22;;;2.60;;
20065;SDS011;10193;48.884;9.182;2022-10-30T14:31:08;2.42;;;2.22;;
20065;SDS011;10193;48.884;9.182;2022-10-30T14:33:41;3.83;;;2.47;;
20065;SDS011;10193;48.884;9.182;2022-10-30T14:36:13;4.57;;;2.47;;
20065;SDS011;10193;48.884;9.182;2022-10-30T14:38:51;5.53;;;2.90;;
20065;SDS011;10193;48.884;9.182;2022-10-30T14:50:21;5.10;;;3.08;;
20065;SDS011;10193;48.884;9.182;2022-10-30T14:55:49;4.63;;;3.10;;
20065;SDS011;10193;48.884;9.182;2022-10-30T14:58:22;3.60;;;2.92;;
20065;SDS011;10193;48.884;9.182;2022-10-30T15:00:53;3.10;;;2.53;;
20065;SDS011;10193;48.884;9.182;2022-10-30T15:03:45;4.03;;;2.90;;
20065;SDS011;10193;48.884;9.182;2022-10-30T15:06:20;2.97;;;2.47;;
20065;SDS011;10193;48.884;9.182;2022-10-30T15:08:56;3.83;;;2.50;;
20065;SDS011;10193;48.884;9.182;2022-10-30T15:11:52;2.97;;;2.70;;
20065;SDS011;10193;48.884;9.182;2022-10-30T15:14:39;4.03;;;2.70;;
20065;SDS011;10193;48.884;9.182;2022-10-30T15:17:21;4.10;;;2.35;;
20065;SDS011;10193;48.884;9.182;2022-10-30T15:19:52;4.32;;;2.33;;
20065;SDS011;10193;48.884;9.182;2022-10-30T15:22:20;2.97;;;2.50;;
20065;SDS011;10193;48.884;9.182;2022-10-30T15:24:48;6.30;;;2.92;;
20065;SDS011;10193;48.884;9.182;2022-10-30T15:27:16;4.20;;;2.95;;
20065;SDS011;10193;48.884;9.182;2022-10-30T15:29:45;5.93;;;3.38;;